sensor_id;sensor_type;location;lat;lon;timestamp;P1;durP1;ratioP1;P2;durP2;ratioP2
57663;SDS011;43493;53.098;6.064;2023-05-21T00:00:45;7.37;;;4.00;;
57663;SDS011;43493;53.098;6.064;2023-05-21T00:03:12;9.87;;;3.73;;
57663;SDS011;43493;53.098;6.064;2023-05-21T00:05:42;6.33;;;3.60;;
57663;SDS011;43493;53.098;6.064;2023-05-21T00:08:11;5.23;;;3.30;;
57663;SDS011;43493;53.098;6.064;2023-05-21T00:10:38;7.13;;;3.93;;
57663;SDS011;43493;53.098;6.064;2023-05-21T00:13:03;7.73;;;3.80;;
57663;SDS011;43493;53.098;6.064;2023-05-21T00:15:29;8.10;;;3.90;;
57663;SDS011;43493;53.098;6.064;2023-05-21T00:17:55;7.23;;;3.63;;
57663;SDS011;43493;53.098;6.064;2023-05-21T00:20:20;5.63;;;3.57;;
57663;SDS011;43493;53.098;6.064;2023-05-21T00:22:47;7.07;;;3.43;;
57663;SDS011;43493;53.098;6.064;2023-05-21T00:25:13;7.67;;;3.37;;
57663;SDS011;43493;53.098;6.064;2023-05-21T00:27:38;7.07;;;4.10;;
57663;SDS011;43493;53.098;6.064;2023-05-21T00:30:05;7.77;;;3.50;;
57663;SDS011;43493;53.098;6.064;2023-05-21T00:32:31;6.83;;;3.60;;
57663;SDS011;43493;53.098;6.064;2023-05-21T00:34:57;6.40;;;3.93;;
57663;SDS011;43493;53.098;6.064;2023-05-21T00:37:22;7.17;;;3.23;;
57663;SDS011;43493;53.098;6.064;2023-05-21T00:39:49;5.97;;;3.43;;
57663;SDS011;43493;53.098;6.064;2023-05-21T00:42:15;7.63;;;4.03;;
57663;SDS011;43493;53.098;6.064;2023-05-21T00:44:42;8.13;;;3.60;;
57663;SDS011;43493;53.098;6.064;2023-05-21T00:47:09;6.13;;;3.73;;
57663;SDS011;43493;53.098;6.064;2023-05-21T00:49:42;9.03;;;3.73;;
57663;SDS011;43493;53.098;6.064;2023-05-21T00:52:08;8.57;;;3.87;;
57663;SDS011;43493;53.098;6.064;2023-05-21T00:54:34;7.13;;;3.60;;
57663;SDS011;43493;53.098;6.064;2023-05-21T00:56:59;7.43;;;4.20;;
57663;SDS011;43493;53.098;6.064;2023-05-21T00:59:26;7.87;;;3.83;;
57663;SDS011;43493;53.098;6.064;2023-05-21T01:01:52;8.50;;;3.63;;
57663;SDS011;43493;53.098;6.064;2023-05-21T01:04:23;7.30;;;3.70;;
57663;SDS011;43493;53.098;6.064;2023-05-21T01:06:49;11.20;;;3.73;;
57663;SDS011;43493;53.098;6.064;2023-05-21T01:09:17;7.73;;;3.97;;
57663;SDS011;43493;53.098;6.064;2023-05-21T01:11:45;7.50;;;4.10;;
57663;SDS011;43493;53.098;6.064;2023-05-21T01:14:12;8.00;;;3.87;;
57663;SDS011;43493;53.098;6.064;2023-05-21T01:16:40;9.60;;;4.23;;
57663;SDS011;43493;53.098;6.064;2023-05-21T01:19:12;7.30;;;3.63;;
57663;SDS011;43493;53.098;6.064;2023-05-21T01:21:41;7.73;;;4.13;;
57663;SDS011;43493;53.098;6.064;2023-05-21T01:24:09;7.80;;;3.60;;
57663;SDS011;43493;53.098;6.064;2023-05-21T01:26:35;7.23;;;3.50;;
57663;SDS011;43493;53.098;6.064;2023-05-21T01:29:06;13.00;;;4.03;;
57663;SDS011;43493;53.098;6.064;2023-05-21T01:31:41;6.63;;;4.00;;
57663;SDS011;43493;53.098;6.064;2023-05-21T01:34:18;7.60;;;3.83;;
57663;SDS011;43493;53.098;6.064;2023-05-21T01:36:56;7.90;;;4.10;;
57663;SDS011;43493;53.098;6.064;2023-05-21T01:39:43;7.33;;;3.70;;
57663;SDS011;43493;53.098;6.064;2023-05-21T01:42:15;9.43;;;4.60;;
57663;SDS011;43493;53.098;6.064;2023-05-21T01:44:42;7.37;;;3.90;;
57663;SDS011;43493;53.098;6.064;2023-05-21T01:47:10;7.40;;;3.50;;
57663;SDS011;43493;53.098;6.064;2023-05-21T01:49:36;6.63;;;3.17;;
57663;SDS011;43493;53.098;6.064;2023-05-21T01:52:02;5.90;;;3.47;;
57663;SDS011;43493;53.098;6.064;2023-05-21T01:54:28;10.23;;;3.93;;
57663;SDS011;43493;53.098;6.064;2023-05-21T01:56:54;6.90;;;3.77;;
57663;SDS011;43493;53.098;6.064;2023-05-21T01:59:20;6.40;;;3.80;;
57663;SDS011;43493;53.098;6.064;2023-05-21T02:01:46;7.73;;;3.20;;
57663;SDS011;43493;53.098;6.064;2023-05-21T02:04:12;6.07;;;3.67;;
57663;SDS011;43493;53.098;6.064;2023-05-21T02:06:38;8.73;;;4.27;;
57663;SDS011;43493;53.098;6.064;2023-05-21T02:09:03;7.57;;;4.03;;
57663;SDS011;43493;53.098;6.064;2023-05-21T02:11:29;6.40;;;3.53;;
57663;SDS011;43493;53.098;6.064;2023-05-21T02:13:56;9.10;;;4.10;;
57663;SDS011;43493;53.098;6.064;2023-05-21T02:16:21;7.63;;;3.87;;
57663;SDS011;43493;53.098;6.064;2023-05-21T02:18:47;7.97;;;3.97;;
57663;SDS011;43493;53.098;6.064;2023-05-21T02:21:17;8.23;;;3.90;;
57663;SDS011;43493;53.098;6.064;2023-05-21T02:23:44;7.87;;;4.00;;
57663;SDS011;43493;53.098;6.064;2023-05-21T02:26:10;7.30;;;3.60;;
57663;SDS011;43493;53.098;6.064;2023-05-21T02:28:36;6.70;;;3.40;;
57663;SDS011;43493;53.098;6.064;2023-05-21T02:31:02;7.27;;;3.97;;
57663;SDS011;43493;53.098;6.064;2023-05-21T02:33:28;8.03;;;4.13;;
57663;SDS011;43493;53.098;6.064;2023-05-21T02:35:53;9.20;;;4.63;;
57663;SDS011;43493;53.098;6.064;2023-05-21T02:38:19;8.97;;;5.00;;
57663;SDS011;43493;53.098;6.064;2023-05-21T02:40:47;12.07;;;5.27;;
57663;SDS011;43493;53.098;6.064;2023-05-21T02:43:14;9.97;;;4.73;;
57663;SDS011;43493;53.098;6.064;2023-05-21T02:45:40;9.50;;;5.33;;
57663;SDS011;43493;53.098;6.064;2023-05-21T02:48:06;9.87;;;5.17;;
57663;SDS011;43493;53.098;6.064;2023-05-21T02:50:32;9.90;;;5.30;;
57663;SDS011;43493;53.098;6.064;2023-05-21T02:52:57;8.87;;;5.27;;
57663;SDS011;43493;53.098;6.064;2023-05-21T02:55:26;11.87;;;6.10;;
57663;SDS011;43493;53.098;6.064;2023-05-21T02:57:52;8.33;;;5.37;;
57663;SDS011;43493;53.098;6.064;2023-05-21T03:00:17;11.83;;;6.27;;
57663;SDS011;43493;53.098;6.064;2023-05-21T03:02:43;11.87;;;5.90;;
57663;SDS011;43493;53.098;6.064;2023-05-21T03:05:09;9.70;;;6.23;;
57663;SDS011;43493;53.098;6.064;2023-05-21T03:07:35;10.70;;;6.30;;
57663;SDS011;43493;53.098;6.064;2023-05-21T03:10:00;13.60;;;6.20;;
57663;SDS011;43493;53.098;6.064;2023-05-21T03:12:26;10.03;;;5.57;;
57663;SDS011;43493;53.098;6.064;2023-05-21T03:14:52;11.10;;;6.30;;
57663;SDS011;43493;53.098;6.064;2023-05-21T03:17:18;13.83;;;5.63;;
57663;SDS011;43493;53.098;6.064;2023-05-21T03:19:44;14.37;;;6.07;;
57663;SDS011;43493;53.098;6.064;2023-05-21T03:22:10;10.93;;;5.97;;
57663;SDS011;43493;53.098;6.064;2023-05-21T03:24:36;15.93;;;6.73;;
57663;SDS011;43493;53.098;6.064;2023-05-21T03:27:03;11.03;;;6.17;;
57663;SDS011;43493;53.098;6.064;2023-05-21T03:29:30;10.63;;;5.67;;
57663;SDS011;43493;53.098;6.064;2023-05-21T03:31:57;12.17;;;6.33;;
57663;SDS011;43493;53.098;6.064;2023-05-21T03:34:22;15.77;;;6.20;;
57663;SDS011;43493;53.098;6.064;2023-05-21T03:36:48;13.27;;;6.00;;
57663;SDS011;43493;53.098;6.064;2023-05-21T03:39:15;10.50;;;5.60;;
57663;SDS011;43493;53.098;6.064;2023-05-21T03:41:40;14.40;;;6.47;;
57663;SDS011;43493;53.098;6.064;2023-05-21T03:44:07;13.17;;;6.10;;
57663;SDS011;43493;53.098;6.064;2023-05-21T03:46:32;9.93;;;5.97;;
57663;SDS011;43493;53.098;6.064;2023-05-21T03:48:58;12.73;;;6.13;;
57663;SDS011;43493;53.098;6.064;2023-05-21T03:51:24;14.00;;;6.50;;
57663;SDS011;43493;53.098;6.064;2023-05-21T03:53:50;10.67;;;6.17;;
57663;SDS011;43493;53.098;6.064;2023-05-21T03:56:16;12.20;;;6.40;;
57663;SDS011;43493;53.098;6.064;2023-05-21T03:58:42;13.10;;;6.53;;
57663;SDS011;43493;53.098;6.064;2023-05-21T04:01:08;12.17;;;6.30;;
57663;SDS011;43493;53.098;6.064;2023-05-21T04:03:35;12.73;;;6.20;;
57663;SDS011;43493;53.098;6.064;2023-05-21T04:06:01;12.60;;;5.87;;
57663;SDS011;43493;53.098;6.064;2023-05-21T04:08:27;11.77;;;6.37;;
57663;SDS011;43493;53.098;6.064;2023-05-21T04:10:53;11.13;;;6.67;;
57663;SDS011;43493;53.098;6.064;2023-05-21T04:13:19;11.73;;;6.80;;
57663;SDS011;43493;53.098;6.064;2023-05-21T04:15:45;11.73;;;7.13;;
57663;SDS011;43493;53.098;6.064;2023-05-21T04:18:11;15.40;;;6.97;;
57663;SDS011;43493;53.098;6.064;2023-05-21T04:20:41;15.83;;;7.40;;
57663;SDS011;43493;53.098;6.064;2023-05-21T04:23:07;14.63;;;7.37;;
57663;SDS011;43493;53.098;6.064;2023-05-21T04:25:33;13.47;;;7.43;;
57663;SDS011;43493;53.098;6.064;2023-05-21T04:27:59;13.37;;;7.27;;
57663;SDS011;43493;53.098;6.064;2023-05-21T04:30:24;13.77;;;7.03;;
57663;SDS011;43493;53.098;6.064;2023-05-21T04:32:50;10.10;;;6.53;;
57663;SDS011;43493;53.098;6.064;2023-05-21T04:35:16;14.20;;;7.10;;
57663;SDS011;43493;53.098;6.064;2023-05-21T04:37:42;11.37;;;6.60;;
57663;SDS011;43493;53.098;6.064;2023-05-21T04:40:10;12.60;;;6.53;;
57663;SDS011;43493;53.098;6.064;2023-05-21T04:42:42;12.10;;;6.87;;
57663;SDS011;43493;53.098;6.064;2023-05-21T04:45:10;13.17;;;6.80;;
57663;SDS011;43493;53.098;6.064;2023-05-21T04:47:36;12.93;;;6.50;;
57663;SDS011;43493;53.098;6.064;2023-05-21T04:50:02;10.27;;;6.03;;
57663;SDS011;43493;53.098;6.064;2023-05-21T04:52:29;11.27;;;5.97;;
57663;SDS011;43493;53.098;6.064;2023-05-21T04:54:55;12.63;;;6.13;;
57663;SDS011;43493;53.098;6.064;2023-05-21T04:57:21;8.43;;;5.03;;
57663;SDS011;43493;53.098;6.064;2023-05-21T04:59:49;9.23;;;5.67;;
57663;SDS011;43493;53.098;6.064;2023-05-21T05:02:14;13.23;;;5.57;;
57663;SDS011;43493;53.098;6.064;2023-05-21T05:04:40;12.33;;;5.83;;
57663;SDS011;43493;53.098;6.064;2023-05-21T05:07:08;10.57;;;5.37;;
57663;SDS011;43493;53.098;6.064;2023-05-21T05:09:34;13.40;;;5.53;;
57663;SDS011;43493;53.098;6.064;2023-05-21T05:11:59;13.03;;;6.17;;
57663;SDS011;43493;53.098;6.064;2023-05-21T05:14:25;10.17;;;5.00;;
57663;SDS011;43493;53.098;6.064;2023-05-21T05:16:54;10.83;;;5.47;;
57663;SDS011;43493;53.098;6.064;2023-05-21T05:19:24;11.70;;;5.50;;
57663;SDS011;43493;53.098;6.064;2023-05-21T05:21:50;9.50;;;4.63;;
57663;SDS011;43493;53.098;6.064;2023-05-21T05:24:16;10.70;;;5.40;;
57663;SDS011;43493;53.098;6.064;2023-05-21T05:26:42;9.07;;;4.83;;
57663;SDS011;43493;53.098;6.064;2023-05-21T05:29:07;13.20;;;5.37;;
57663;SDS011;43493;53.098;6.064;2023-05-21T05:31:33;14.27;;;6.10;;
57663;SDS011;43493;53.098;6.064;2023-05-21T05:33:59;10.37;;;5.00;;
57663;SDS011;43493;53.098;6.064;2023-05-21T05:36:25;9.87;;;5.20;;
57663;SDS011;43493;53.098;6.064;2023-05-21T05:38:51;8.37;;;4.57;;
57663;SDS011;43493;53.098;6.064;2023-05-21T05:41:17;11.47;;;4.70;;
57663;SDS011;43493;53.098;6.064;2023-05-21T05:43:42;13.73;;;4.87;;
57663;SDS011;43493;53.098;6.064;2023-05-21T05:46:08;11.07;;;4.97;;
57663;SDS011;43493;53.098;6.064;2023-05-21T05:48:34;10.70;;;4.70;;
57663;SDS011;43493;53.098;6.064;2023-05-21T05:51:00;11.97;;;4.93;;
57663;SDS011;43493;53.098;6.064;2023-05-21T05:53:25;10.00;;;4.43;;
57663;SDS011;43493;53.098;6.064;2023-05-21T05:55:51;10.07;;;4.13;;
57663;SDS011;43493;53.098;6.064;2023-05-21T05:58:17;9.37;;;5.03;;
57663;SDS011;43493;53.098;6.064;2023-05-21T06:00:43;13.50;;;5.27;;
57663;SDS011;43493;53.098;6.064;2023-05-21T06:03:08;13.47;;;4.77;;
57663;SDS011;43493;53.098;6.064;2023-05-21T06:05:36;10.90;;;4.30;;
57663;SDS011;43493;53.098;6.064;2023-05-21T06:08:01;8.37;;;4.20;;
57663;SDS011;43493;53.098;6.064;2023-05-21T06:10:27;9.77;;;4.70;;
57663;SDS011;43493;53.098;6.064;2023-05-21T06:12:53;11.20;;;4.20;;
57663;SDS011;43493;53.098;6.064;2023-05-21T06:15:18;6.90;;;3.93;;
57663;SDS011;43493;53.098;6.064;2023-05-21T06:17:44;11.50;;;4.77;;
57663;SDS011;43493;53.098;6.064;2023-05-21T06:20:10;9.60;;;4.80;;
57663;SDS011;43493;53.098;6.064;2023-05-21T06:22:36;12.73;;;5.10;;
57663;SDS011;43493;53.098;6.064;2023-05-21T06:25:02;11.23;;;4.70;;
57663;SDS011;43493;53.098;6.064;2023-05-21T06:27:28;11.53;;;5.23;;
57663;SDS011;43493;53.098;6.064;2023-05-21T06:29:54;10.33;;;5.27;;
57663;SDS011;43493;53.098;6.064;2023-05-21T06:32:21;9.03;;;4.10;;
57663;SDS011;43493;53.098;6.064;2023-05-21T06:34:48;10.20;;;4.43;;
57663;SDS011;43493;53.098;6.064;2023-05-21T06:37:17;9.90;;;5.40;;
57663;SDS011;43493;53.098;6.064;2023-05-21T06:39:44;9.63;;;4.77;;
57663;SDS011;43493;53.098;6.064;2023-05-21T06:42:10;9.60;;;4.27;;
57663;SDS011;43493;53.098;6.064;2023-05-21T06:44:36;9.80;;;4.23;;
57663;SDS011;43493;53.098;6.064;2023-05-21T06:47:01;10.97;;;4.03;;
57663;SDS011;43493;53.098;6.064;2023-05-21T06:49:27;8.53;;;4.10;;
57663;SDS011;43493;53.098;6.064;2023-05-21T06:51:53;10.77;;;4.30;;
57663;SDS011;43493;53.098;6.064;2023-05-21T06:54:19;9.10;;;4.23;;
57663;SDS011;43493;53.098;6.064;2023-05-21T06:56:44;8.03;;;3.70;;
57663;SDS011;43493;53.098;6.064;2023-05-21T06:59:10;11.23;;;5.17;;
57663;SDS011;43493;53.098;6.064;2023-05-21T07:01:36;10.07;;;4.37;;
57663;SDS011;43493;53.098;6.064;2023-05-21T07:04:02;10.53;;;4.53;;
57663;SDS011;43493;53.098;6.064;2023-05-21T07:06:27;9.97;;;4.80;;
57663;SDS011;43493;53.098;6.064;2023-05-21T07:08:53;8.90;;;4.07;;
57663;SDS011;43493;53.098;6.064;2023-05-21T07:11:19;11.23;;;4.27;;
57663;SDS011;43493;53.098;6.064;2023-05-21T07:13:45;10.27;;;3.97;;
57663;SDS011;43493;53.098;6.064;2023-05-21T07:16:11;8.77;;;4.40;;
57663;SDS011;43493;53.098;6.064;2023-05-21T07:18:36;9.47;;;4.20;;
57663;SDS011;43493;53.098;6.064;2023-05-21T07:21:02;10.83;;;5.10;;
57663;SDS011;43493;53.098;6.064;2023-05-21T07:23:28;9.47;;;4.50;;
57663;SDS011;43493;53.098;6.064;2023-05-21T07:25:54;8.50;;;4.07;;
57663;SDS011;43493;53.098;6.064;2023-05-21T07:28:19;10.70;;;4.40;;
57663;SDS011;43493;53.098;6.064;2023-05-21T07:30:45;9.00;;;3.80;;
57663;SDS011;43493;53.098;6.064;2023-05-21T07:33:11;9.03;;;4.07;;
57663;SDS011;43493;53.098;6.064;2023-05-21T07:35:37;6.60;;;3.93;;
57663;SDS011;43493;53.098;6.064;2023-05-21T07:38:03;9.27;;;4.40;;
57663;SDS011;43493;53.098;6.064;2023-05-21T07:40:28;8.00;;;4.47;;
57663;SDS011;43493;53.098;6.064;2023-05-21T07:42:54;9.53;;;4.83;;
57663;SDS011;43493;53.098;6.064;2023-05-21T07:45:20;7.83;;;3.87;;
57663;SDS011;43493;53.098;6.064;2023-05-21T07:47:46;10.57;;;4.27;;
57663;SDS011;43493;53.098;6.064;2023-05-21T07:50:12;7.90;;;4.47;;
57663;SDS011;43493;53.098;6.064;2023-05-21T07:52:38;8.57;;;4.07;;
57663;SDS011;43493;53.098;6.064;2023-05-21T07:55:04;7.87;;;4.40;;
57663;SDS011;43493;53.098;6.064;2023-05-21T07:57:31;9.70;;;4.23;;
57663;SDS011;43493;53.098;6.064;2023-05-21T07:59:57;11.77;;;5.07;;
57663;SDS011;43493;53.098;6.064;2023-05-21T08:02:22;9.53;;;4.47;;
57663;SDS011;43493;53.098;6.064;2023-05-21T08:04:48;9.40;;;4.33;;
57663;SDS011;43493;53.098;6.064;2023-05-21T08:07:14;6.70;;;3.83;;
57663;SDS011;43493;53.098;6.064;2023-05-21T08:09:43;7.77;;;4.40;;
57663;SDS011;43493;53.098;6.064;2023-05-21T08:12:09;7.13;;;4.20;;
57663;SDS011;43493;53.098;6.064;2023-05-21T08:14:39;6.43;;;3.63;;
57663;SDS011;43493;53.098;6.064;2023-05-21T08:17:07;7.63;;;4.53;;
57663;SDS011;43493;53.098;6.064;2023-05-21T08:19:33;7.17;;;3.63;;
57663;SDS011;43493;53.098;6.064;2023-05-21T08:21:59;8.57;;;4.13;;
57663;SDS011;43493;53.098;6.064;2023-05-21T08:24:25;9.03;;;3.90;;
57663;SDS011;43493;53.098;6.064;2023-05-21T08:26:51;9.13;;;4.30;;
57663;SDS011;43493;53.098;6.064;2023-05-21T08:29:17;8.93;;;3.70;;
57663;SDS011;43493;53.098;6.064;2023-05-21T08:31:43;9.47;;;3.70;;
57663;SDS011;43493;53.098;6.064;2023-05-21T08:34:08;11.57;;;4.00;;
57663;SDS011;43493;53.098;6.064;2023-05-21T08:36:34;9.37;;;3.87;;
57663;SDS011;43493;53.098;6.064;2023-05-21T08:39:00;7.60;;;3.80;;
57663;SDS011;43493;53.098;6.064;2023-05-21T08:41:26;9.93;;;4.33;;
57663;SDS011;43493;53.098;6.064;2023-05-21T08:43:55;6.87;;;3.77;;
57663;SDS011;43493;53.098;6.064;2023-05-21T08:46:24;8.43;;;4.20;;
57663;SDS011;43493;53.098;6.064;2023-05-21T08:48:51;8.57;;;4.27;;
57663;SDS011;43493;53.098;6.064;2023-05-21T08:51:19;8.43;;;3.27;;
57663;SDS011;43493;53.098;6.064;2023-05-21T08:53:46;7.30;;;3.83;;
57663;SDS011;43493;53.098;6.064;2023-05-21T08:56:14;7.33;;;2.90;;
57663;SDS011;43493;53.098;6.064;2023-05-21T08:58:46;8.23;;;3.80;;
57663;SDS011;43493;53.098;6.064;2023-05-21T09:01:13;7.00;;;3.47;;
57663;SDS011;43493;53.098;6.064;2023-05-21T09:03:39;6.87;;;3.27;;
57663;SDS011;43493;53.098;6.064;2023-05-21T09:06:12;7.17;;;3.33;;
57663;SDS011;43493;53.098;6.064;2023-05-21T09:08:44;8.45;;;3.47;;
57663;SDS011;43493;53.098;6.064;2023-05-21T09:11:13;6.97;;;3.80;;
57663;SDS011;43493;53.098;6.064;2023-05-21T09:13:40;6.10;;;3.00;;
57663;SDS011;43493;53.098;6.064;2023-05-21T09:16:09;9.87;;;4.10;;
57663;SDS011;43493;53.098;6.064;2023-05-21T09:18:35;9.13;;;3.03;;
57663;SDS011;43493;53.098;6.064;2023-05-21T09:23:55;8.40;;;3.47;;
57663;SDS011;43493;53.098;6.064;2023-05-21T09:26:22;7.17;;;3.47;;
57663;SDS011;43493;53.098;6.064;2023-05-21T09:28:49;7.27;;;3.40;;
57663;SDS011;43493;53.098;6.064;2023-05-21T09:31:16;6.30;;;3.40;;
57663;SDS011;43493;53.098;6.064;2023-05-21T09:33:45;7.83;;;3.53;;
57663;SDS011;43493;53.098;6.064;2023-05-21T09:36:16;6.57;;;3.27;;
57663;SDS011;43493;53.098;6.064;2023-05-21T09:38:44;7.90;;;3.10;;
57663;SDS011;43493;53.098;6.064;2023-05-21T09:41:10;7.80;;;3.40;;
57663;SDS011;43493;53.098;6.064;2023-05-21T09:43:36;9.87;;;3.67;;
57663;SDS011;43493;53.098;6.064;2023-05-21T09:46:02;9.37;;;3.33;;
57663;SDS011;43493;53.098;6.064;2023-05-21T09:48:38;7.47;;;3.30;;
57663;SDS011;43493;53.098;6.064;2023-05-21T09:53:51;8.13;;;4.00;;
57663;SDS011;43493;53.098;6.064;2023-05-21T09:56:28;6.37;;;3.30;;
57663;SDS011;43493;53.098;6.064;2023-05-21T09:58:59;8.83;;;3.43;;
57663;SDS011;43493;53.098;6.064;2023-05-21T10:01:29;7.47;;;3.10;;
57663;SDS011;43493;53.098;6.064;2023-05-21T10:03:56;7.53;;;3.77;;
57663;SDS011;43493;53.098;6.064;2023-05-21T10:06:27;8.63;;;3.30;;
57663;SDS011;43493;53.098;6.064;2023-05-21T10:08:54;8.63;;;3.60;;
57663;SDS011;43493;53.098;6.064;2023-05-21T10:11:22;6.07;;;3.30;;
57663;SDS011;43493;53.098;6.064;2023-05-21T10:13:52;11.00;;;4.47;;
57663;SDS011;43493;53.098;6.064;2023-05-21T10:16:21;7.90;;;3.83;;
57663;SDS011;43493;53.098;6.064;2023-05-21T10:18:48;8.73;;;3.63;;
57663;SDS011;43493;53.098;6.064;2023-05-21T10:21:14;8.77;;;3.13;;
57663;SDS011;43493;53.098;6.064;2023-05-21T10:23:40;9.33;;;4.00;;
57663;SDS011;43493;53.098;6.064;2023-05-21T10:26:07;9.57;;;3.37;;
57663;SDS011;43493;53.098;6.064;2023-05-21T10:28:34;8.60;;;3.50;;
57663;SDS011;43493;53.098;6.064;2023-05-21T10:31:01;7.80;;;3.50;;
57663;SDS011;43493;53.098;6.064;2023-05-21T10:33:28;8.03;;;3.33;;
57663;SDS011;43493;53.098;6.064;2023-05-21T10:35:54;8.40;;;3.50;;
57663;SDS011;43493;53.098;6.064;2023-05-21T10:38:22;10.30;;;3.97;;
57663;SDS011;43493;53.098;6.064;2023-05-21T10:40:49;9.57;;;3.87;;
57663;SDS011;43493;53.098;6.064;2023-05-21T10:55:16;8.60;;;3.90;;
57663;SDS011;43493;53.098;6.064;2023-05-21T11:00:31;6.67;;;3.30;;
57663;SDS011;43493;53.098;6.064;2023-05-21T11:02:57;9.57;;;3.27;;
57663;SDS011;43493;53.098;6.064;2023-05-21T11:05:40;9.27;;;3.33;;
57663;SDS011;43493;53.098;6.064;2023-05-21T11:08:23;8.20;;;3.70;;
57663;SDS011;43493;53.098;6.064;2023-05-21T11:10:54;8.20;;;3.63;;
57663;SDS011;43493;53.098;6.064;2023-05-21T11:13:22;9.47;;;3.30;;
57663;SDS011;43493;53.098;6.064;2023-05-21T11:26:20;5.67;;;2.90;;
57663;SDS011;43493;53.098;6.064;2023-05-21T11:31:34;7.18;;;3.08;;
57663;SDS011;43493;53.098;6.064;2023-05-21T11:39:47;7.53;;;3.13;;
57663;SDS011;43493;53.098;6.064;2023-05-21T11:42:37;7.53;;;3.10;;
57663;SDS011;43493;53.098;6.064;2023-05-21T11:45:03;7.53;;;2.73;;
57663;SDS011;43493;53.098;6.064;2023-05-21T11:47:30;9.17;;;3.30;;
57663;SDS011;43493;53.098;6.064;2023-05-21T11:49:58;9.43;;;3.57;;
57663;SDS011;43493;53.098;6.064;2023-05-21T11:52:26;7.10;;;3.37;;
57663;SDS011;43493;53.098;6.064;2023-05-21T11:54:54;8.77;;;2.93;;
57663;SDS011;43493;53.098;6.064;2023-05-21T11:57:21;8.70;;;3.90;;
57663;SDS011;43493;53.098;6.064;2023-05-21T11:59:52;7.87;;;3.30;;
57663;SDS011;43493;53.098;6.064;2023-05-21T12:02:20;7.93;;;3.70;;
57663;SDS011;43493;53.098;6.064;2023-05-21T12:04:47;8.77;;;3.47;;
57663;SDS011;43493;53.098;6.064;2023-05-21T12:07:20;7.87;;;3.43;;
57663;SDS011;43493;53.098;6.064;2023-05-21T12:09:47;8.07;;;3.13;;
57663;SDS011;43493;53.098;6.064;2023-05-21T12:12:17;9.97;;;3.50;;
57663;SDS011;43493;53.098;6.064;2023-05-21T12:14:46;6.50;;;3.60;;
57663;SDS011;43493;53.098;6.064;2023-05-21T12:17:16;9.03;;;3.60;;
57663;SDS011;43493;53.098;6.064;2023-05-21T12:19:46;6.37;;;3.70;;
57663;SDS011;43493;53.098;6.064;2023-05-21T12:22:14;6.93;;;3.80;;
57663;SDS011;43493;53.098;6.064;2023-05-21T12:24:40;8.23;;;3.80;;
57663;SDS011;43493;53.098;6.064;2023-05-21T12:27:09;10.13;;;4.47;;
57663;SDS011;43493;53.098;6.064;2023-05-21T12:29:40;8.93;;;4.20;;
57663;SDS011;43493;53.098;6.064;2023-05-21T12:32:08;7.07;;;3.80;;
57663;SDS011;43493;53.098;6.064;2023-05-21T12:34:38;7.90;;;4.67;;
57663;SDS011;43493;53.098;6.064;2023-05-21T12:37:25;8.00;;;4.67;;
57663;SDS011;43493;53.098;6.064;2023-05-21T12:39:57;11.23;;;5.10;;
57663;SDS011;43493;53.098;6.064;2023-05-21T12:42:30;10.87;;;4.33;;
57663;SDS011;43493;53.098;6.064;2023-05-21T12:45:00;8.37;;;4.83;;
57663;SDS011;43493;53.098;6.064;2023-05-21T12:47:30;9.27;;;4.03;;
57663;SDS011;43493;53.098;6.064;2023-05-21T12:49:58;10.80;;;4.63;;
57663;SDS011;43493;53.098;6.064;2023-05-21T12:52:25;7.20;;;4.30;;
57663;SDS011;43493;53.098;6.064;2023-05-21T12:54:52;8.63;;;4.80;;
57663;SDS011;43493;53.098;6.064;2023-05-21T12:57:21;10.30;;;4.67;;
57663;SDS011;43493;53.098;6.064;2023-05-21T12:59:55;8.77;;;4.30;;
57663;SDS011;43493;53.098;6.064;2023-05-21T13:04:56;11.30;;;5.83;;
57663;SDS011;43493;53.098;6.064;2023-05-21T13:07:24;12.33;;;6.07;;
57663;SDS011;43493;53.098;6.064;2023-05-21T13:09:51;7.83;;;5.30;;
57663;SDS011;43493;53.098;6.064;2023-05-21T13:12:18;11.80;;;6.07;;
57663;SDS011;43493;53.098;6.064;2023-05-21T13:14:45;9.77;;;5.47;;
57663;SDS011;43493;53.098;6.064;2023-05-21T13:17:11;10.50;;;5.30;;
57663;SDS011;43493;53.098;6.064;2023-05-21T13:19:36;13.27;;;5.43;;
57663;SDS011;43493;53.098;6.064;2023-05-21T13:22:02;14.27;;;6.53;;
57663;SDS011;43493;53.098;6.064;2023-05-21T13:24:28;11.97;;;6.73;;
57663;SDS011;43493;53.098;6.064;2023-05-21T13:26:54;13.13;;;7.50;;
57663;SDS011;43493;53.098;6.064;2023-05-21T13:29:19;11.77;;;7.10;;
57663;SDS011;43493;53.098;6.064;2023-05-21T13:31:45;9.73;;;7.00;;
57663;SDS011;43493;53.098;6.064;2023-05-21T13:34:11;11.33;;;7.57;;
57663;SDS011;43493;53.098;6.064;2023-05-21T13:36:37;13.50;;;7.37;;
57663;SDS011;43493;53.098;6.064;2023-05-21T13:39:04;12.50;;;6.73;;
57663;SDS011;43493;53.098;6.064;2023-05-21T13:41:30;12.47;;;7.50;;
57663;SDS011;43493;53.098;6.064;2023-05-21T13:43:56;10.93;;;7.80;;
57663;SDS011;43493;53.098;6.064;2023-05-21T13:46:22;11.50;;;7.90;;
57663;SDS011;43493;53.098;6.064;2023-05-21T13:48:48;13.70;;;8.70;;
57663;SDS011;43493;53.098;6.064;2023-05-21T13:51:14;15.13;;;10.47;;
57663;SDS011;43493;53.098;6.064;2023-05-21T13:53:39;14.20;;;9.67;;
57663;SDS011;43493;53.098;6.064;2023-05-21T13:56:05;13.57;;;10.07;;
57663;SDS011;43493;53.098;6.064;2023-05-21T13:58:31;14.77;;;10.07;;
57663;SDS011;43493;53.098;6.064;2023-05-21T14:00:59;14.60;;;10.10;;
57663;SDS011;43493;53.098;6.064;2023-05-21T14:03:25;15.53;;;11.57;;
57663;SDS011;43493;53.098;6.064;2023-05-21T14:05:52;13.23;;;10.57;;
57663;SDS011;43493;53.098;6.064;2023-05-21T14:08:18;15.53;;;10.40;;
57663;SDS011;43493;53.098;6.064;2023-05-21T14:10:45;13.17;;;10.53;;
57663;SDS011;43493;53.098;6.064;2023-05-21T14:13:12;17.27;;;11.27;;
57663;SDS011;43493;53.098;6.064;2023-05-21T14:15:38;16.70;;;11.57;;
57663;SDS011;43493;53.098;6.064;2023-05-21T14:18:04;17.27;;;12.17;;
57663;SDS011;43493;53.098;6.064;2023-05-21T14:20:34;16.43;;;10.83;;
57663;SDS011;43493;53.098;6.064;2023-05-21T14:23:00;17.67;;;12.37;;
57663;SDS011;43493;53.098;6.064;2023-05-21T14:25:26;17.70;;;12.27;;
57663;SDS011;43493;53.098;6.064;2023-05-21T14:27:52;16.23;;;10.80;;
57663;SDS011;43493;53.098;6.064;2023-05-21T14:30:18;17.03;;;10.20;;
57663;SDS011;43493;53.098;6.064;2023-05-21T14:32:44;16.80;;;11.20;;
57663;SDS011;43493;53.098;6.064;2023-05-21T14:35:09;16.67;;;11.37;;
57663;SDS011;43493;53.098;6.064;2023-05-21T14:37:35;15.07;;;11.10;;
57663;SDS011;43493;53.098;6.064;2023-05-21T14:40:01;14.30;;;11.17;;
57663;SDS011;43493;53.098;6.064;2023-05-21T14:42:29;16.57;;;11.20;;
57663;SDS011;43493;53.098;6.064;2023-05-21T14:44:55;18.07;;;11.83;;
57663;SDS011;43493;53.098;6.064;2023-05-21T14:47:20;19.20;;;12.17;;
57663;SDS011;43493;53.098;6.064;2023-05-21T14:49:46;17.27;;;13.83;;
57663;SDS011;43493;53.098;6.064;2023-05-21T14:52:12;17.47;;;13.13;;
57663;SDS011;43493;53.098;6.064;2023-05-21T14:54:37;20.20;;;13.00;;
57663;SDS011;43493;53.098;6.064;2023-05-21T14:57:03;18.33;;;12.37;;
57663;SDS011;43493;53.098;6.064;2023-05-21T14:59:29;28.90;;;25.90;;
57663;SDS011;43493;53.098;6.064;2023-05-21T15:01:55;20.23;;;16.00;;
57663;SDS011;43493;53.098;6.064;2023-05-21T15:04:21;17.77;;;13.03;;
57663;SDS011;43493;53.098;6.064;2023-05-21T15:06:46;18.33;;;11.63;;
57663;SDS011;43493;53.098;6.064;2023-05-21T15:09:12;19.17;;;13.53;;
57663;SDS011;43493;53.098;6.064;2023-05-21T15:11:38;22.80;;;12.43;;
57663;SDS011;43493;53.098;6.064;2023-05-21T15:14:04;16.70;;;12.17;;
57663;SDS011;43493;53.098;6.064;2023-05-21T15:16:30;18.77;;;14.13;;
57663;SDS011;43493;53.098;6.064;2023-05-21T15:18:55;17.07;;;12.57;;
57663;SDS011;43493;53.098;6.064;2023-05-21T15:21:21;16.53;;;13.30;;